createdAt,value
2018-09-14T00:00:48.644Z,16.6
2018-09-14T00:01:49.316Z,16.6
2018-09-14T00:02:49.990Z,16.6
2018-09-14T00:03:50.665Z,16.5
2018-09-14T00:04:51.342Z,16.5
2018-09-14T00:05:52.016Z,16.4
2018-09-14T00:06:52.694Z,16.5
2018-09-14T00:07:53.397Z,16.4
2018-09-14T00:08:54.085Z,16.5
2018-09-14T00:09:54.759Z,16.5
2018-09-14T00:10:55.434Z,16.5
2018-09-14T00:11:56.107Z,16.4
2018-09-14T00:12:56.784Z,16.3
2018-09-14T00:13:57.459Z,16.3
2018-09-14T00:14:58.133Z,16.3
2018-09-14T00:15:58.808Z,16.3
2018-09-14T00:16:59.484Z,16.3
2018-09-14T00:18:00.158Z,16.2
2018-09-14T00:19:00.833Z,16.2
2018-09-14T00:20:01.509Z,16.2
2018-09-14T00:21:02.181Z,16.2
2018-09-14T00:22:02.856Z,16.1
2018-09-14T00:23:03.530Z,16.1
2018-09-14T00:24:04.205Z,16.1
2018-09-14T00:25:04.881Z,16.0
2018-09-14T00:26:05.556Z,16.0
2018-09-14T00:27:06.229Z,16.0
2018-09-14T00:28:06.907Z,16.0
2018-09-14T00:29:07.624Z,16.0
2018-09-14T00:30:08.345Z,15.9
2018-09-14T00:31:09.018Z,16.0
2018-09-14T00:32:09.736Z,15.9
2018-09-14T00:33:10.409Z,15.8
2018-09-14T00:34:11.085Z,15.9
2018-09-14T00:35:11.760Z,15.8
2018-09-14T00:36:12.486Z,15.8
2018-09-14T00:37:13.153Z,15.8
2018-09-14T00:38:13.828Z,15.7
2018-09-14T00:39:14.503Z,15.7
2018-09-14T00:40:15.177Z,15.7
2018-09-14T00:41:15.850Z,15.7
2018-09-14T00:42:16.525Z,15.7
2018-09-14T00:43:17.203Z,15.7
2018-09-14T00:44:17.916Z,15.7
2018-09-14T00:45:18.590Z,15.7
2018-09-14T00:46:19.265Z,15.6
2018-09-14T00:47:19.940Z,15.7
2018-09-14T00:48:20.612Z,15.7
2018-09-14T00:49:21.286Z,15.7
2018-09-14T00:50:21.960Z,15.7
2018-09-14T00:51:22.635Z,15.6
2018-09-14T00:52:23.355Z,15.7
2018-09-14T00:53:24.073Z,15.7
2018-09-14T00:54:24.746Z,15.7
2018-09-14T00:55:25.420Z,15.7
2018-09-14T00:56:26.097Z,15.7
2018-09-14T00:57:26.770Z,15.6
2018-09-14T00:58:27.445Z,15.6
2018-09-14T00:59:28.118Z,15.6
2018-09-14T01:00:28.843Z,15.6
2018-09-14T01:01:29.520Z,15.5
2018-09-14T01:02:30.236Z,15.4
2018-09-14T01:03:30.912Z,15.5
2018-09-14T01:04:31.589Z,15.5
2018-09-14T01:05:32.263Z,15.5
2018-09-14T01:06:32.936Z,15.6
2018-09-14T01:07:33.610Z,15.5
2018-09-14T01:08:34.284Z,15.5
2018-09-14T01:09:34.958Z,15.5
2018-09-14T01:10:35.632Z,15.4
2018-09-14T01:11:36.308Z,15.5
2018-09-14T01:12:36.985Z,15.4
2018-09-14T01:13:37.655Z,15.5
2018-09-14T01:14:38.329Z,15.4
2018-09-14T01:15:39.008Z,15.5
2018-09-14T01:16:39.723Z,15.5
2018-09-14T01:17:40.440Z,15.5
2018-09-14T01:18:41.115Z,15.5
2018-09-14T01:19:41.789Z,15.6
2018-09-14T01:20:42.514Z,15.5
2018-09-14T01:21:43.191Z,15.6
2018-09-14T01:22:43.864Z,15.6
2018-09-14T01:23:44.582Z,15.5
2018-09-14T01:24:45.256Z,15.5
2018-09-14T01:25:45.931Z,15.5
2018-09-14T01:26:46.606Z,15.6
2018-09-14T01:27:47.278Z,15.7
2018-09-14T01:28:47.958Z,15.6
2018-09-14T01:29:48.628Z,15.6
2018-09-14T01:30:49.305Z,15.6
2018-09-14T01:31:49.975Z,15.6
2018-09-14T01:32:50.651Z,15.6
2018-09-14T01:33:51.326Z,15.6
2018-09-14T01:34:52.000Z,15.6
2018-09-14T01:35:52.674Z,15.7
2018-09-14T01:36:53.350Z,15.6
2018-09-14T01:37:54.023Z,15.6
2018-09-14T01:38:54.698Z,15.5
2018-09-14T01:39:55.371Z,15.6
2018-09-14T01:40:56.044Z,15.6
2018-09-14T01:41:56.719Z,15.7
2018-09-14T01:42:57.394Z,15.6
2018-09-14T01:43:58.068Z,15.6
2018-09-14T01:44:58.742Z,15.6
2018-09-14T01:45:59.417Z,15.6
2018-09-14T01:47:00.090Z,15.6
2018-09-14T01:48:00.769Z,15.6
2018-09-14T01:49:01.443Z,15.6
2018-09-14T01:50:02.115Z,15.5
2018-09-14T01:51:02.787Z,15.5
2018-09-14T01:52:03.464Z,15.6
2018-09-14T01:53:04.137Z,15.6
2018-09-14T01:54:04.810Z,15.6
2018-09-14T01:55:05.531Z,15.6
2018-09-14T01:56:06.203Z,15.6
2018-09-14T01:57:06.878Z,15.6
2018-09-14T01:58:07.552Z,15.6
2018-09-14T01:59:08.253Z,15.6
2018-09-14T02:00:08.907Z,15.7
2018-09-14T02:01:09.576Z,15.6
2018-09-14T02:02:10.250Z,15.5
2018-09-14T02:03:10.924Z,15.6
2018-09-14T02:04:11.599Z,15.7
2018-09-14T02:05:12.317Z,15.5
2018-09-14T02:06:12.994Z,15.7
2018-09-14T02:07:13.713Z,15.6
2018-09-14T02:08:14.384Z,15.6
2018-09-14T02:09:15.057Z,15.7
2018-09-14T02:10:15.733Z,15.6
2018-09-14T02:11:16.407Z,15.6
2018-09-14T02:12:17.082Z,15.6
2018-09-14T02:13:17.755Z,15.7
2018-09-14T02:14:18.430Z,15.6
2018-09-14T02:15:19.103Z,15.6
2018-09-14T02:16:19.780Z,15.6
2018-09-14T02:17:20.454Z,15.6
2018-09-14T02:18:21.178Z,15.6
2018-09-14T02:19:21.852Z,15.6
2018-09-14T02:20:22.527Z,15.7
2018-09-14T02:21:23.205Z,15.6
2018-09-14T02:22:23.875Z,15.6
2018-09-14T02:23:24.549Z,15.6
2018-09-14T02:24:25.224Z,15.7
2018-09-14T02:25:25.917Z,15.7
2018-09-14T02:26:26.573Z,15.6
2018-09-14T02:27:27.248Z,15.7
2018-09-14T02:28:27.922Z,15.7
2018-09-14T02:29:28.596Z,15.6
2018-09-14T02:30:29.278Z,15.6
2018-09-14T02:31:29.945Z,15.6
2018-09-14T02:32:30.619Z,15.6
2018-09-14T02:33:31.294Z,15.6
2018-09-14T02:34:31.967Z,15.7
2018-09-14T02:35:32.642Z,15.7
2018-09-14T02:36:33.313Z,15.7
2018-09-14T02:37:33.988Z,15.7
2018-09-14T02:38:34.662Z,15.7
2018-09-14T02:39:35.339Z,15.7
2018-09-14T02:40:36.012Z,15.7
2018-09-14T02:41:36.687Z,15.7
2018-09-14T02:42:37.405Z,15.7
2018-09-14T02:43:38.082Z,15.7
2018-09-14T02:44:38.799Z,15.7
2018-09-14T02:45:39.477Z,15.7
2018-09-14T02:46:40.147Z,15.7
2018-09-14T02:47:40.828Z,15.7
2018-09-14T02:48:41.540Z,15.7
2018-09-14T02:49:42.213Z,15.6
2018-09-14T02:50:42.889Z,15.6
2018-09-14T02:51:43.563Z,15.7
2018-09-14T02:52:44.243Z,15.6
2018-09-14T02:53:44.912Z,15.7
2018-09-14T02:54:45.584Z,15.6
2018-09-14T02:55:46.258Z,15.7
2018-09-14T02:56:46.937Z,15.7
2018-09-14T02:57:47.651Z,15.7
2018-09-14T02:58:48.324Z,15.7
2018-09-14T02:59:49.043Z,15.8
2018-09-14T03:00:49.721Z,15.7
2018-09-14T03:01:50.392Z,15.7
2018-09-14T03:02:51.065Z,15.7
2018-09-14T03:03:51.775Z,15.7
2018-09-14T03:04:52.461Z,15.6
2018-09-14T03:05:53.134Z,15.6
2018-09-14T03:06:53.807Z,15.7
2018-09-14T03:07:54.482Z,15.7
2018-09-14T03:08:55.167Z,15.7
2018-09-14T03:09:55.836Z,15.6
2018-09-14T03:10:56.506Z,15.6
2018-09-14T03:11:57.179Z,15.6
2018-09-14T03:12:57.854Z,15.6
2018-09-14T03:13:58.529Z,15.7
2018-09-14T03:14:59.248Z,15.6
2018-09-14T03:15:59.921Z,15.7
2018-09-14T03:17:00.598Z,15.7
2018-09-14T03:18:01.271Z,15.7
2018-09-14T03:19:01.946Z,15.8
2018-09-14T03:20:02.619Z,15.7
2018-09-14T03:21:03.295Z,15.7
2018-09-14T03:22:03.969Z,15.7
2018-09-14T03:23:04.644Z,15.7
2018-09-14T03:24:05.318Z,15.7
2018-09-14T03:25:05.993Z,15.7
2018-09-14T03:26:06.672Z,15.7
2018-09-14T03:27:07.385Z,15.7
2018-09-14T03:28:08.059Z,15.7
2018-09-14T03:29:08.790Z,15.8
2018-09-14T03:30:09.505Z,15.7
2018-09-14T03:31:10.172Z,15.7
2018-09-14T03:32:10.925Z,15.7
2018-09-14T03:33:11.524Z,15.7
2018-09-14T03:34:12.195Z,15.7
2018-09-14T03:35:12.870Z,15.8
2018-09-14T03:36:13.544Z,15.8
2018-09-14T03:37:14.218Z,15.7
2018-09-14T03:38:14.895Z,15.7
2018-09-14T03:39:15.589Z,15.7
2018-09-14T03:40:16.243Z,15.7
2018-09-14T03:41:16.916Z,15.7
2018-09-14T03:42:17.593Z,15.8
2018-09-14T03:43:18.266Z,15.8
2018-09-14T03:44:18.940Z,15.8
2018-09-14T03:45:19.614Z,15.8
2018-09-14T03:46:20.288Z,15.8
2018-09-14T03:47:20.962Z,15.8
2018-09-14T03:48:21.639Z,15.7
2018-09-14T03:49:22.311Z,15.7
2018-09-14T03:50:23.017Z,15.8
2018-09-14T03:51:23.707Z,15.8
2018-09-14T03:52:24.378Z,15.8
2018-09-14T03:53:25.051Z,15.7
2018-09-14T03:54:25.727Z,15.8
2018-09-14T03:55:26.444Z,15.8
2018-09-14T03:56:27.117Z,15.8
2018-09-14T03:57:27.864Z,15.7
2018-09-14T03:58:28.464Z,15.8
2018-09-14T03:59:29.137Z,15.8
2018-09-14T04:00:29.814Z,15.8
2018-09-14T04:01:30.487Z,15.8
2018-09-14T04:02:31.161Z,15.9
2018-09-14T04:03:31.835Z,15.8
2018-09-14T04:04:32.511Z,15.8
2018-09-14T04:05:33.183Z,15.9
2018-09-14T04:06:33.858Z,15.8
2018-09-14T04:07:34.541Z,15.8
2018-09-14T04:08:35.209Z,15.8
2018-09-14T04:09:35.882Z,15.8
2018-09-14T04:10:36.557Z,15.9
2018-09-14T04:11:37.231Z,15.8
2018-09-14T04:12:37.949Z,15.8
2018-09-14T04:13:38.616Z,15.8
2018-09-14T04:14:39.294Z,15.8
2018-09-14T04:15:39.966Z,15.8
2018-09-14T04:16:40.662Z,15.8
2018-09-14T04:17:41.357Z,15.8
2018-09-14T04:18:42.035Z,15.8
2018-09-14T04:19:42.750Z,15.8
2018-09-14T04:20:43.423Z,15.7
2018-09-14T04:21:44.098Z,15.8
2018-09-14T04:22:44.773Z,15.8
2018-09-14T04:23:45.495Z,15.8
2018-09-14T04:24:46.172Z,15.8
2018-09-14T04:25:46.849Z,15.8
2018-09-14T04:26:47.523Z,15.8
2018-09-14T04:27:48.197Z,15.9
2018-09-14T04:28:48.873Z,15.8
2018-09-14T04:29:49.588Z,15.8
2018-09-14T04:30:50.267Z,15.8
2018-09-14T04:31:50.954Z,15.8
2018-09-14T04:32:51.613Z,15.8
2018-09-14T04:33:52.293Z,15.8
2018-09-14T04:34:53.006Z,15.8
2018-09-14T04:35:53.707Z,15.8
2018-09-14T04:36:54.399Z,15.7
2018-09-14T04:37:55.088Z,15.7
2018-09-14T04:38:55.748Z,15.7
2018-09-14T04:39:56.421Z,15.8
2018-09-14T04:40:57.097Z,15.8
2018-09-14T04:41:57.770Z,15.7
2018-09-14T04:42:58.446Z,15.8
2018-09-14T04:43:59.121Z,15.8
2018-09-14T04:44:59.797Z,15.7
2018-09-14T04:46:00.472Z,15.8
2018-09-14T04:47:01.155Z,15.7
2018-09-14T04:48:01.823Z,15.8
2018-09-14T04:49:02.499Z,15.8
2018-09-14T04:50:03.175Z,15.8
2018-09-14T04:51:03.851Z,15.8
2018-09-14T04:52:04.527Z,15.7
2018-09-14T04:53:05.231Z,15.8
2018-09-14T04:54:05.877Z,15.8
2018-09-14T04:55:06.555Z,15.8
2018-09-14T04:56:07.230Z,15.8
2018-09-14T04:57:07.905Z,15.8
2018-09-14T04:58:08.579Z,15.8
2018-09-14T04:59:09.261Z,15.8
2018-09-14T05:00:09.934Z,15.7
2018-09-14T05:01:10.649Z,15.8
2018-09-14T05:02:11.325Z,15.8
2018-09-14T05:03:12.052Z,15.8
2018-09-14T05:04:12.681Z,15.8
2018-09-14T05:05:13.404Z,15.9
2018-09-14T05:06:14.119Z,15.8
2018-09-14T05:07:14.793Z,15.8
2018-09-14T05:08:15.478Z,15.8
2018-09-14T05:09:16.187Z,15.9
2018-09-14T05:10:16.866Z,15.8
2018-09-14T05:11:17.586Z,15.8
2018-09-14T05:12:18.259Z,15.8
2018-09-14T05:13:18.946Z,15.8
2018-09-14T05:14:19.728Z,15.7
2018-09-14T05:15:20.327Z,15.8
2018-09-14T05:16:21.004Z,15.8
2018-09-14T05:17:21.680Z,15.7
2018-09-14T05:18:22.356Z,15.8
2018-09-14T05:19:23.032Z,15.8
2018-09-14T05:20:23.708Z,15.8
2018-09-14T05:21:24.385Z,15.7
2018-09-14T05:22:25.061Z,15.8
2018-09-14T05:23:25.770Z,15.7
2018-09-14T05:24:26.461Z,15.7
2018-09-14T05:25:27.136Z,15.8
2018-09-14T05:26:27.813Z,15.7
2018-09-14T05:27:28.491Z,15.7
2018-09-14T05:28:29.169Z,15.7
2018-09-14T05:29:29.892Z,15.7
2018-09-14T05:30:30.563Z,15.7
2018-09-14T05:31:31.239Z,15.7
2018-09-14T05:32:31.920Z,15.7
2018-09-14T05:33:32.641Z,15.6
2018-09-14T05:34:33.314Z,15.7
2018-09-14T05:35:34.035Z,15.6
2018-09-14T05:36:34.712Z,15.7
2018-09-14T05:37:35.392Z,15.7
2018-09-14T05:38:36.072Z,15.7
2018-09-14T05:39:36.745Z,15.7
2018-09-14T05:40:37.430Z,15.7
2018-09-14T05:41:38.188Z,15.7
2018-09-14T05:42:38.858Z,15.7
2018-09-14T05:43:39.540Z,15.6
2018-09-14T05:44:40.213Z,15.7
2018-09-14T05:45:40.971Z,15.7
2018-09-14T05:46:41.572Z,15.6
2018-09-14T05:47:42.290Z,15.7
2018-09-14T05:48:42.969Z,15.7
2018-09-14T05:49:43.646Z,15.7
2018-09-14T05:50:44.324Z,15.7
2018-09-14T05:51:45.001Z,15.6
2018-09-14T05:52:45.679Z,15.6
2018-09-14T05:54:47.033Z,15.7
2018-09-14T05:55:47.715Z,15.6
2018-09-14T05:56:48.434Z,15.6
2018-09-14T05:57:49.111Z,15.6
2018-09-14T05:58:49.790Z,15.6
2018-09-14T05:59:50.468Z,15.6
2018-09-14T06:00:51.146Z,15.6
2018-09-14T06:01:51.869Z,15.7
2018-09-14T06:02:52.544Z,15.6
2018-09-14T06:03:53.221Z,15.4
2018-09-14T06:04:53.898Z,15.4
2018-09-14T06:05:54.575Z,15.4
2018-09-14T06:06:55.334Z,15.5
2018-09-14T06:07:55.967Z,15.5
2018-09-14T06:08:56.656Z,15.5
2018-09-14T06:09:57.366Z,15.5
2018-09-14T06:10:58.044Z,15.5
2018-09-14T06:11:58.765Z,15.6
2018-09-14T06:12:59.442Z,15.6
2018-09-14T06:14:00.121Z,15.6
2018-09-14T06:15:00.801Z,15.6
2018-09-14T06:16:01.475Z,15.5
2018-09-14T06:17:02.231Z,15.6
2018-09-14T06:18:02.830Z,15.6
2018-09-14T06:19:03.511Z,15.7
2018-09-14T06:20:04.232Z,15.7
2018-09-14T06:21:04.910Z,15.7
2018-09-14T06:22:05.591Z,15.8
2018-09-14T06:23:06.366Z,15.8
2018-09-14T06:24:06.986Z,15.8
2018-09-14T06:25:07.665Z,15.8
2018-09-14T06:26:08.346Z,15.9
2018-09-14T06:27:09.023Z,15.9
2018-09-14T06:28:09.702Z,15.9
2018-09-14T06:29:10.382Z,15.9
2018-09-14T06:30:11.105Z,16.0
2018-09-14T06:31:11.739Z,15.9
2018-09-14T06:32:12.418Z,16.0
2018-09-14T06:33:13.096Z,16.1
2018-09-14T06:34:13.776Z,16.0
2018-09-14T06:35:14.456Z,16.0
2018-09-14T06:36:15.134Z,16.1
2018-09-14T06:37:15.815Z,16.0
2018-09-14T06:38:16.523Z,16.1
2018-09-14T06:39:17.174Z,16.1
2018-09-14T06:40:17.855Z,16.1
2018-09-14T06:41:18.533Z,16.1
2018-09-14T06:42:19.209Z,16.1
2018-09-14T06:43:19.889Z,16.2
2018-09-14T06:44:20.569Z,16.1
2018-09-14T06:45:21.272Z,16.2
2018-09-14T06:46:21.927Z,16.2
2018-09-14T06:47:22.606Z,16.3
2018-09-14T06:48:23.285Z,16.3
2018-09-14T06:49:23.965Z,16.3
2018-09-14T06:50:24.645Z,16.3
2018-09-14T06:51:25.324Z,16.4
2018-09-14T06:52:26.006Z,16.4
2018-09-14T06:53:26.935Z,16.4
2018-09-14T06:54:27.406Z,16.5
2018-09-14T06:55:28.084Z,16.5
2018-09-14T06:56:28.764Z,16.5
2018-09-14T06:57:29.443Z,16.6
2018-09-14T06:58:30.123Z,16.6
2018-09-14T06:59:30.847Z,16.6
2018-09-14T07:00:31.585Z,16.6
2018-09-14T07:01:32.205Z,16.6
2018-09-14T07:02:32.885Z,16.7
2018-09-14T07:03:33.595Z,16.7
2018-09-14T07:04:34.291Z,16.7
2018-09-14T07:05:34.970Z,16.8
2018-09-14T07:06:35.739Z,16.7
2018-09-14T07:07:36.330Z,16.7
2018-09-14T07:08:37.007Z,16.7
2018-09-14T07:09:37.697Z,16.8
2018-09-14T07:10:38.369Z,16.8
2018-09-14T07:11:39.090Z,16.8
2018-09-14T07:12:39.727Z,16.8
2018-09-14T07:13:40.491Z,16.8
2018-09-14T07:14:41.184Z,16.8
2018-09-14T07:15:41.860Z,16.9
2018-09-14T07:16:42.542Z,16.9
2018-09-14T07:17:43.266Z,17.0
2018-09-14T07:18:43.946Z,17.0
2018-09-14T07:19:44.626Z,17.1
2018-09-14T07:20:45.312Z,17.1
2018-09-14T07:21:46.021Z,17.1
2018-09-14T07:22:46.705Z,17.1
2018-09-14T07:23:47.386Z,17.2
2018-09-14T07:24:48.227Z,17.1
2018-09-14T07:25:48.746Z,17.2
2018-09-14T07:26:49.440Z,17.2
2018-09-14T07:27:50.105Z,17.2
2018-09-14T07:28:50.885Z,17.3
2018-09-14T07:29:51.465Z,17.2
2018-09-14T07:30:52.201Z,17.2
2018-09-14T07:31:52.940Z,17.1
2018-09-14T07:32:53.562Z,17.2
2018-09-14T07:33:54.228Z,17.2
2018-09-14T07:34:54.909Z,17.1
2018-09-14T07:35:55.588Z,17.2
2018-09-14T07:36:56.267Z,17.2
2018-09-14T07:37:56.946Z,17.2
2018-09-14T07:38:57.625Z,17.2
2018-09-14T07:39:58.305Z,17.3
2018-09-14T07:40:58.984Z,17.3
2018-09-14T07:41:59.665Z,17.2
2018-09-14T07:43:00.347Z,17.3
2018-09-14T07:44:01.023Z,17.3
2018-09-14T07:45:01.709Z,17.1
2018-09-14T07:46:02.385Z,17.2
2018-09-14T07:47:03.065Z,17.2
2018-09-14T07:48:03.745Z,17.3
2018-09-14T07:49:04.426Z,17.1
2018-09-14T07:50:05.104Z,17.2
2018-09-14T07:51:05.784Z,17.3
2018-09-14T07:52:06.468Z,17.3
2018-09-14T07:53:07.187Z,17.3
2018-09-14T07:54:07.887Z,17.4
2018-09-14T07:55:08.593Z,17.5
2018-09-14T07:56:09.279Z,17.6
2018-09-14T07:57:09.954Z,17.5
2018-09-14T07:58:10.635Z,17.4
2018-09-14T07:59:11.316Z,17.4
2018-09-14T08:00:11.998Z,17.5
2018-09-14T08:01:12.702Z,17.5
2018-09-14T08:02:13.358Z,17.5
2018-09-14T08:03:14.041Z,17.6
2018-09-14T08:04:14.721Z,17.6
2018-09-14T08:05:15.402Z,17.6
2018-09-14T08:06:16.092Z,17.6
2018-09-14T08:07:16.763Z,17.7
2018-09-14T08:08:17.444Z,17.7
2018-09-14T08:09:18.127Z,17.7
2018-09-14T08:10:18.857Z,17.6
2018-09-14T08:11:19.579Z,17.6
2018-09-14T08:12:20.261Z,17.7
2018-09-14T08:13:21.032Z,17.7
2018-09-14T08:14:21.660Z,17.7
2018-09-14T08:15:22.342Z,17.7
2018-09-14T08:16:23.024Z,17.7
2018-09-14T08:17:23.706Z,17.6
2018-09-14T08:18:24.385Z,17.7
2018-09-14T08:19:25.067Z,17.7
2018-09-14T08:20:25.748Z,17.7
2018-09-14T08:21:26.464Z,17.6
2018-09-14T08:22:27.109Z,17.7
2018-09-14T08:23:27.789Z,17.7
2018-09-14T08:24:28.471Z,17.7
2018-09-14T08:25:29.155Z,17.7
2018-09-14T08:26:29.833Z,17.8
2018-09-14T08:27:30.516Z,17.8
2018-09-14T08:28:31.242Z,17.9
2018-09-14T08:29:31.924Z,17.9
2018-09-14T08:30:32.606Z,17.8
2018-09-14T08:31:33.287Z,17.9
2018-09-14T08:32:33.972Z,18.0
2018-09-14T08:33:34.696Z,18.0
2018-09-14T08:34:35.378Z,18.0
2018-09-14T08:35:36.062Z,18.0
2018-09-14T08:36:36.748Z,18.0
2018-09-14T08:37:37.471Z,18.0
2018-09-14T08:38:38.153Z,18.0
2018-09-14T08:39:38.854Z,18.1
2018-09-14T08:40:39.560Z,18.0
2018-09-14T08:41:40.240Z,18.1
2018-09-14T08:42:40.921Z,18.1
2018-09-14T08:43:41.600Z,18.1
2018-09-14T08:44:42.282Z,18.1
2018-09-14T08:45:42.960Z,18.1
2018-09-14T08:46:43.645Z,18.0
2018-09-14T08:47:44.335Z,18.0
2018-09-14T08:48:45.002Z,18.0
2018-09-14T08:49:45.681Z,18.0
2018-09-14T08:50:46.361Z,18.1
2018-09-14T08:51:47.085Z,18.1
2018-09-14T08:52:47.818Z,18.0
2018-09-14T08:53:48.495Z,18.0
2018-09-14T08:54:49.221Z,18.0
2018-09-14T08:55:49.901Z,18.0
2018-09-14T08:56:50.580Z,18.0
2018-09-14T08:57:51.261Z,18.0
2018-09-14T08:58:51.942Z,18.0
2018-09-14T08:59:52.622Z,17.9
2018-09-14T09:00:53.397Z,17.9
2018-09-14T09:01:53.984Z,18.0
2018-09-14T09:02:54.663Z,18.0
2018-09-14T09:03:55.465Z,18.0
2018-09-14T09:04:56.025Z,18.0
2018-09-14T09:05:56.705Z,17.9
2018-09-14T09:06:57.386Z,18.0
2018-09-14T09:07:58.069Z,17.9
2018-09-14T09:08:58.807Z,18.0
2018-09-14T09:09:59.463Z,17.9
2018-09-14T09:11:00.157Z,17.9
2018-09-14T09:12:00.835Z,17.8
2018-09-14T09:13:01.515Z,17.9
2018-09-14T09:14:02.195Z,17.9
2018-09-14T09:15:02.876Z,17.9
2018-09-14T09:16:03.556Z,17.9
2018-09-14T09:17:04.239Z,17.9
2018-09-14T09:18:04.916Z,17.9
2018-09-14T09:19:05.596Z,17.9
2018-09-14T09:20:06.278Z,17.9
2018-09-14T09:21:06.960Z,18.0
2018-09-14T09:22:07.637Z,18.0
2018-09-14T09:23:08.319Z,17.9
2018-09-14T09:24:09.047Z,18.0
2018-09-14T09:25:09.728Z,18.0
2018-09-14T09:26:10.442Z,18.0
2018-09-14T09:27:11.092Z,18.0
2018-09-14T09:28:11.773Z,18.1
2018-09-14T09:29:12.454Z,18.2
2018-09-14T09:30:13.135Z,18.3
2018-09-14T09:31:13.818Z,18.3
2018-09-14T09:32:14.545Z,18.4
2018-09-14T09:33:15.226Z,18.4
2018-09-14T09:34:15.907Z,18.5
2018-09-14T09:35:16.590Z,18.6
2018-09-14T09:36:17.275Z,18.6
2018-09-14T09:37:17.952Z,18.8
2018-09-14T09:38:18.634Z,18.8
2018-09-14T09:39:19.316Z,18.8
2018-09-14T09:40:19.997Z,18.8
2018-09-14T09:41:20.677Z,19.0
2018-09-14T09:42:21.360Z,19.0
2018-09-14T09:43:22.140Z,19.1
2018-09-14T09:44:22.762Z,19.3
2018-09-14T09:45:23.445Z,19.2
2018-09-14T09:46:24.171Z,19.3
2018-09-14T09:47:24.852Z,19.4
2018-09-14T09:48:25.533Z,19.4
2018-09-14T09:49:26.217Z,19.5
2018-09-14T09:50:26.900Z,19.5
2018-09-14T09:51:27.580Z,19.5
2018-09-14T09:52:28.263Z,19.5
2018-09-14T09:53:28.944Z,19.4
2018-09-14T09:54:29.626Z,19.5
2018-09-14T09:55:30.309Z,19.4
2018-09-14T09:56:31.044Z,19.4
2018-09-14T09:57:31.673Z,19.5
2018-09-14T09:58:32.355Z,19.4
2018-09-14T09:59:33.036Z,19.3
2018-09-14T10:00:33.766Z,19.3
2018-09-14T10:01:34.448Z,19.4
2018-09-14T10:02:35.128Z,19.3
2018-09-14T10:03:35.850Z,19.3
2018-09-14T10:04:36.491Z,19.2
2018-09-14T10:05:37.171Z,19.3
2018-09-14T10:06:37.853Z,19.2
2018-09-14T10:07:38.535Z,19.2
2018-09-14T10:08:39.216Z,19.3
2018-09-14T10:09:39.902Z,19.3
2018-09-14T10:10:40.623Z,19.3
2018-09-14T10:11:41.311Z,19.5
2018-09-14T10:12:41.987Z,19.5
2018-09-14T10:13:42.671Z,19.5
2018-09-14T10:14:43.354Z,19.6
2018-09-14T10:15:44.036Z,19.7
2018-09-14T10:16:44.716Z,19.7
2018-09-14T10:17:45.399Z,19.9
2018-09-14T10:18:46.081Z,19.9
2018-09-14T10:19:46.761Z,20.0
2018-09-14T10:20:47.491Z,20.0
2018-09-14T10:21:48.221Z,20.1
2018-09-14T10:22:48.813Z,20.2
2018-09-14T10:23:49.527Z,20.3
2018-09-14T10:24:50.252Z,20.4
2018-09-14T10:25:50.933Z,20.5
2018-09-14T10:26:51.651Z,20.5
2018-09-14T10:27:52.297Z,20.6
2018-09-14T10:28:53.015Z,20.7
2018-09-14T10:29:53.660Z,20.8
2018-09-14T10:30:54.342Z,20.7
2018-09-14T10:31:55.025Z,20.7
2018-09-14T10:32:55.706Z,20.8
2018-09-14T10:33:56.403Z,21.0
2018-09-14T10:34:57.115Z,20.9
2018-09-14T10:35:57.795Z,21.1
2018-09-14T10:36:58.511Z,21.1
2018-09-14T10:37:59.154Z,21.1
2018-09-14T10:38:59.835Z,21.3
2018-09-14T10:40:00.575Z,21.3
2018-09-14T10:41:01.274Z,21.5
2018-09-14T10:42:01.963Z,21.6
2018-09-14T10:43:02.646Z,21.5
2018-09-14T10:44:03.330Z,21.4
2018-09-14T10:45:04.010Z,21.5
2018-09-14T10:46:04.696Z,21.4
2018-09-14T10:47:05.375Z,21.3
2018-09-14T10:48:06.057Z,21.4
2018-09-14T10:49:06.741Z,21.4
2018-09-14T10:50:07.529Z,21.5
2018-09-14T10:51:08.105Z,21.5
2018-09-14T10:52:08.789Z,21.6
2018-09-14T10:53:09.479Z,21.7
2018-09-14T10:54:10.240Z,21.7
2018-09-14T10:55:10.882Z,21.7
2018-09-14T10:56:11.562Z,21.9
2018-09-14T10:57:12.244Z,21.8
2018-09-14T10:58:12.927Z,21.9
2018-09-14T10:59:13.611Z,21.9
2018-09-14T11:00:14.337Z,21.9
2018-09-14T11:01:15.067Z,21.9
2018-09-14T11:02:15.797Z,22.0
2018-09-14T11:03:16.482Z,21.9
2018-09-14T11:04:17.177Z,21.9
2018-09-14T11:05:17.890Z,22.0
2018-09-14T11:06:18.574Z,22.0
2018-09-14T11:07:19.258Z,21.9
2018-09-14T11:08:19.939Z,21.9
2018-09-14T11:09:20.623Z,21.9
2018-09-14T11:10:21.305Z,21.9
2018-09-14T11:11:21.988Z,21.8
2018-09-14T11:12:22.672Z,21.7
2018-09-14T11:13:23.355Z,21.6
2018-09-14T11:14:24.037Z,21.6
2018-09-14T11:15:24.765Z,21.6
2018-09-14T11:16:25.448Z,21.5
2018-09-14T11:17:26.177Z,21.4
2018-09-14T11:18:26.889Z,21.1
2018-09-14T11:19:27.542Z,21.1
2018-09-14T11:20:28.254Z,21.0
2018-09-14T11:21:28.907Z,21.0
2018-09-14T11:22:29.592Z,21.0
2018-09-14T11:23:30.275Z,20.9
2018-09-14T11:24:31.001Z,20.8
2018-09-14T11:25:31.642Z,20.8
2018-09-14T11:26:32.324Z,20.7
2018-09-14T11:27:33.007Z,20.5
2018-09-14T11:28:33.690Z,20.4
2018-09-14T11:29:34.372Z,20.4
2018-09-14T11:30:35.099Z,20.4
2018-09-14T11:31:35.781Z,20.5
2018-09-14T11:32:36.495Z,20.5
2018-09-14T11:33:37.190Z,20.6
2018-09-14T11:34:37.939Z,20.8
2018-09-14T11:35:38.606Z,20.8
2018-09-14T11:36:39.290Z,20.8
2018-09-14T11:37:40.030Z,21.0
2018-09-14T11:38:40.692Z,21.1
2018-09-14T11:39:41.338Z,21.0
2018-09-14T11:40:42.020Z,21.0
2018-09-14T11:41:42.704Z,20.9
2018-09-14T11:42:43.388Z,20.8
2018-09-14T11:43:44.070Z,21.0
2018-09-14T11:44:44.751Z,21.0
2018-09-14T11:45:45.484Z,20.9
2018-09-14T11:46:46.169Z,20.8
2018-09-14T11:47:46.848Z,20.8
2018-09-14T11:48:47.529Z,20.9
2018-09-14T11:49:48.214Z,20.8
2018-09-14T11:50:48.896Z,20.8
2018-09-14T11:51:49.577Z,21.1
2018-09-14T11:52:50.261Z,21.1
2018-09-14T11:53:50.945Z,21.3
2018-09-14T11:54:51.669Z,21.4
2018-09-14T11:55:52.358Z,21.4
2018-09-14T11:56:53.036Z,21.4
2018-09-14T11:57:53.717Z,21.4
2018-09-14T11:58:54.402Z,21.3
2018-09-14T11:59:55.089Z,21.4
2018-09-14T12:00:55.809Z,21.4
2018-09-14T12:01:56.543Z,21.4
2018-09-14T12:02:57.247Z,21.6
2018-09-14T12:03:57.953Z,21.6
2018-09-14T12:04:58.637Z,21.7
2018-09-14T12:05:59.316Z,21.8
2018-09-14T12:07:00.000Z,21.7
2018-09-14T12:08:00.682Z,21.9
2018-09-14T12:09:01.364Z,21.9
2018-09-14T12:10:02.103Z,22.0
2018-09-14T12:11:02.830Z,22.0
2018-09-14T12:12:03.554Z,21.6
2018-09-14T12:13:04.235Z,21.5
2018-09-14T12:14:05.032Z,21.5
2018-09-14T12:15:05.599Z,21.5
2018-09-14T12:16:06.283Z,21.5
2018-09-14T12:17:06.985Z,21.5
2018-09-14T12:18:07.693Z,21.6
2018-09-14T12:19:08.375Z,21.8
2018-09-14T12:20:09.060Z,21.8
2018-09-14T12:21:09.744Z,21.8
2018-09-14T12:22:10.431Z,21.8
2018-09-14T12:23:11.110Z,21.7
2018-09-14T12:24:11.794Z,21.5
2018-09-14T12:25:12.476Z,21.6
2018-09-14T12:26:13.158Z,21.6
2018-09-14T12:27:13.842Z,21.6
2018-09-14T12:28:14.556Z,21.6
2018-09-14T12:29:15.205Z,21.6
2018-09-14T12:30:15.888Z,21.5
2018-09-14T12:31:16.570Z,21.4
2018-09-14T12:32:17.259Z,21.5
2018-09-14T12:33:17.981Z,21.6
2018-09-14T12:34:18.707Z,21.5
2018-09-14T12:35:19.388Z,21.6
2018-09-14T12:36:20.071Z,21.5
2018-09-14T12:37:20.758Z,21.5
2018-09-14T12:38:21.434Z,21.5
2018-09-14T12:39:22.116Z,21.4
2018-09-14T12:40:22.851Z,21.2
2018-09-14T12:41:23.481Z,21.1
2018-09-14T12:42:24.164Z,21.1
2018-09-14T12:43:24.846Z,21.1
2018-09-14T12:44:25.532Z,21.0
2018-09-14T12:45:26.210Z,21.0
2018-09-14T12:46:26.892Z,21.0
2018-09-14T12:47:27.574Z,21.0
2018-09-14T12:48:28.256Z,21.1
2018-09-14T12:49:28.938Z,21.2
2018-09-14T12:50:29.622Z,21.3
2018-09-14T12:51:30.309Z,21.4
2018-09-14T12:52:31.031Z,21.5
2018-09-14T12:53:31.713Z,21.7
2018-09-14T12:54:32.413Z,21.7
2018-09-14T12:55:33.122Z,21.7
2018-09-14T12:56:33.805Z,21.9
2018-09-14T12:57:34.487Z,21.9
2018-09-14T12:58:35.208Z,21.9
2018-09-14T12:59:35.896Z,22.0
2018-09-14T13:00:36.576Z,22.0
2018-09-14T13:01:37.264Z,22.1
2018-09-14T13:02:37.997Z,22.2
2018-09-14T13:03:38.723Z,22.2
2018-09-14T13:04:39.405Z,22.2
2018-09-14T13:05:40.087Z,22.3
2018-09-14T13:06:40.771Z,22.2
2018-09-14T13:07:41.454Z,22.3
2018-09-14T13:08:42.138Z,22.3
2018-09-14T13:09:42.864Z,22.3
2018-09-14T13:10:43.549Z,22.3
2018-09-14T13:11:44.230Z,22.3
2018-09-14T13:12:44.913Z,22.4
2018-09-14T13:13:45.598Z,22.3
2018-09-14T13:14:46.359Z,22.6
2018-09-14T13:15:47.046Z,22.7
2018-09-14T13:16:47.733Z,22.7
2018-09-14T13:17:48.412Z,22.7
2018-09-14T13:18:49.098Z,22.7
2018-09-14T13:19:49.791Z,22.8
2018-09-14T13:20:50.506Z,22.7
2018-09-14T13:21:51.190Z,22.7
2018-09-14T13:22:51.890Z,22.7
2018-09-14T13:23:52.599Z,22.7
2018-09-14T13:24:53.303Z,22.7
2018-09-14T13:25:54.009Z,22.6
2018-09-14T13:26:54.695Z,22.6
2018-09-14T13:27:55.398Z,22.5
2018-09-14T13:28:56.063Z,22.5